Time;durP1;ratioP1;P1;durP2;ratioP2;P2;SDS_P1;SDS_P2;PMS_P1;PMS_P2;Temp;Humidity;BMP_temperature;BMP_pressure;BME280_temperature;BME280_humidity;BME280_pressure;Samples;Min_cycle;Max_cycle;Signal;HPM_P1;HPM_P2
2023/12/10 00:01:56;;;;;;;30.73;5.43;;;8.30;99.90;;;;;;4981177;28;20045;-56
2023/12/10 00:04:22;;;;;;;29.60;5.70;;;8.30;99.90;;;;;;4980241;28;20197;-58
2023/12/10 00:06:47;;;;;;;26.90;4.97;;;8.30;99.90;;;;;;4981331;28;20557;-57
2023/12/10 00:09:13;;;;;;;34.72;5.03;;;8.30;99.90;;;;;;4979103;28;20086;-56
2023/12/10 00:11:39;;;;;;;39.38;5.50;;;8.30;99.90;;;;;;4981125;28;20446;-57
2023/12/10 00:14:05;;;;;;;27.95;6.22;;;8.30;99.90;;;;;;4985255;28;20046;-57
2023/12/10 00:16:31;;;;;;;34.45;5.15;;;8.30;99.90;;;;;;4984766;28;20038;-58
2023/12/10 00:18:57;;;;;;;34.67;5.32;;;8.30;99.90;;;;;;4972251;28;20061;-56
2023/12/10 00:21:23;;;;;;;26.23;4.90;;;8.30;99.90;;;;;;4970490;28;20115;-56
2023/12/10 00:23:49;;;;;;;33.53;6.25;;;8.20;99.90;;;;;;4989413;28;20073;-57
2023/12/10 00:26:17;;;;;;;38.83;6.47;;;8.20;99.90;;;;;;4977200;28;20042;-58
2023/12/10 00:28:43;;;;;;;31.75;5.50;;;8.30;99.90;;;;;;4971839;28;20568;-57
2023/12/10 00:31:09;;;;;;;28.67;5.97;;;8.20;99.90;;;;;;4986304;28;20081;-58
2023/12/10 00:33:35;;;;;;;30.15;5.50;;;8.20;99.90;;;;;;4982814;28;20050;-58
2023/12/10 00:36:01;;;;;;;38.95;6.00;;;8.20;99.90;;;;;;4976312;28;20155;-56
2023/12/10 00:38:27;;;;;;;38.97;6.30;;;8.20;99.90;;;;;;4994882;28;20499;-58
2023/12/10 00:40:53;;;;;;;29.77;5.32;;;8.20;99.90;;;;;;4994182;28;20042;-55
2023/12/10 00:43:18;;;;;;;32.30;5.75;;;8.20;99.90;;;;;;4990691;28;20045;-58
2023/12/10 00:45:44;;;;;;;30.35;5.50;;;8.20;99.90;;;;;;4992897;28;20034;-58
2023/12/10 00:48:12;;;;;;;36.90;5.93;;;8.20;99.90;;;;;;4989700;28;20071;-57
2023/12/10 00:50:38;;;;;;;34.55;5.45;;;8.20;99.90;;;;;;4990913;28;20049;-58
2023/12/10 00:53:04;;;;;;;40.72;6.15;;;8.20;99.90;;;;;;4975237;28;20058;-58
2023/12/10 00:55:30;;;;;;;33.67;4.90;;;8.20;99.90;;;;;;4987660;28;20042;-58
2023/12/10 00:57:55;;;;;;;23.20;4.85;;;8.20;99.90;;;;;;4983965;28;20510;-56
2023/12/10 01:00:22;;;;;;;38.65;5.15;;;8.30;99.90;;;;;;4966947;28;20042;-57
2023/12/10 01:02:49;;;;;;;24.48;4.15;;;8.20;99.90;;;;;;4986344;28;21932;-58
2023/12/10 01:05:15;;;;;;;29.60;4.90;;;8.20;99.90;;;;;;4977432;28;20053;-56
2023/12/10 01:07:41;;;;;;;35.75;5.57;;;8.20;99.90;;;;;;4981966;28;20054;-58
2023/12/10 01:10:07;;;;;;;30.42;4.30;;;8.20;99.90;;;;;;4985200;28;20053;-57
2023/12/10 01:12:36;;;;;;;27.63;4.30;;;8.20;99.90;;;;;;4968766;28;20392;-57
2023/12/10 01:15:06;;;;;;;29.95;4.50;;;8.20;99.90;;;;;;4966226;28;20046;-57
2023/12/10 01:17:32;;;;;;;25.33;4.60;;;8.20;99.90;;;;;;4979562;28;20039;-57
2023/12/10 01:20:03;;;;;;;33.50;5.13;;;8.10;99.90;;;;;;4982489;28;20905;-58
2023/12/10 01:22:29;;;;;;;26.88;4.57;;;8.10;99.90;;;;;;4981685;28;20069;-57
2023/12/10 01:24:55;;;;;;;27.52;4.78;;;8.00;99.90;;;;;;4968081;28;20046;-57
2023/12/10 01:27:21;;;;;;;38.78;5.35;;;8.00;99.90;;;;;;4982755;28;20078;-57
2023/12/10 01:29:47;;;;;;;23.70;4.50;;;8.00;99.90;;;;;;4985369;28;20038;-58
2023/12/10 01:32:13;;;;;;;28.92;5.10;;;8.00;99.90;;;;;;4984143;28;20057;-58
2023/12/10 01:34:41;;;;;;;32.50;4.53;;;7.90;99.90;;;;;;4986962;28;20398;-57
2023/12/10 01:37:07;;;;;;;28.33;5.72;;;7.90;99.90;;;;;;4978337;28;20046;-57
2023/12/10 01:39:33;;;;;;;28.27;5.07;;;7.90;99.90;;;;;;4966934;28;20529;-58
2023/12/10 01:42:00;;;;;;;27.83;5.03;;;7.80;99.90;;;;;;4965978;28;20109;-56
2023/12/10 01:44:26;;;;;;;34.20;6.00;;;7.80;99.90;;;;;;4972173;28;20046;-57
2023/12/10 01:46:53;;;;;;;31.83;4.93;;;7.80;99.90;;;;;;4969345;28;20050;-58
2023/12/10 01:49:19;;;;;;;35.08;6.28;;;7.80;99.90;;;;;;4965618;28;20082;-57
2023/12/10 01:51:45;;;;;;;28.25;5.05;;;7.80;99.90;;;;;;4965403;28;20921;-57
2023/12/10 01:54:20;;;;;;;27.15;4.93;;;7.80;99.90;;;;;;4967311;28;20448;-58
2023/12/10 01:56:49;;;;;;;37.80;6.28;;;7.80;99.90;;;;;;4971702;28;20137;-57
2023/12/10 01:59:15;;;;;;;32.00;4.75;;;7.80;99.90;;;;;;4971135;28;20053;-58
2023/12/10 02:01:41;;;;;;;32.88;4.93;;;7.80;99.90;;;;;;4971953;28;20515;-57
2023/12/10 02:04:07;;;;;;;34.13;6.13;;;7.70;99.90;;;;;;4967585;28;20057;-59
2023/12/10 02:06:33;;;;;;;27.15;5.15;;;7.70;99.90;;;;;;4966789;28;20100;-57
2023/12/10 02:08:59;;;;;;;35.63;5.60;;;7.70;99.90;;;;;;4968144;28;20046;-57
2023/12/10 02:11:25;;;;;;;28.85;5.25;;;7.70;99.90;;;;;;4966189;28;20055;-57
2023/12/10 02:13:51;;;;;;;30.48;5.88;;;7.70;99.90;;;;;;4967835;28;20673;-57
2023/12/10 02:16:17;;;;;;;30.13;5.57;;;7.70;99.90;;;;;;4963593;28;20104;-57
2023/12/10 02:18:43;;;;;;;23.15;4.97;;;7.70;99.90;;;;;;4963074;28;20057;-57
2023/12/10 02:21:09;;;;;;;24.05;4.72;;;7.70;99.90;;;;;;4959260;28;20109;-57
2023/12/10 02:23:51;;;;;;;23.05;4.28;;;7.70;99.90;;;;;;4962401;28;20089;-57
2023/12/10 02:26:16;;;;;;;30.70;5.15;;;7.70;99.90;;;;;;4964180;28;20069;-57
2023/12/10 02:28:42;;;;;;;30.23;5.03;;;7.70;99.90;;;;;;4961030;28;20077;-57
2023/12/10 02:31:08;;;;;;;30.40;4.78;;;7.70;99.90;;;;;;4961367;28;20057;-57
2023/12/10 02:33:34;;;;;;;32.58;4.90;;;7.70;99.90;;;;;;4960136;28;20042;-58
2023/12/10 02:36:00;;;;;;;29.67;5.10;;;7.70;99.90;;;;;;4961184;28;20054;-58
2023/12/10 02:38:25;;;;;;;31.25;4.97;;;7.70;99.90;;;;;;4981430;28;20056;-58
2023/12/10 02:40:51;;;;;;;30.92;4.85;;;7.70;99.90;;;;;;4980261;28;20105;-57
2023/12/10 02:43:17;;;;;;;28.08;4.45;;;7.70;99.90;;;;;;4982402;28;20049;-58
2023/12/10 02:45:43;;;;;;;28.08;5.25;;;7.60;99.90;;;;;;4982803;28;20042;-55
2023/12/10 02:48:09;;;;;;;29.27;5.60;;;7.60;99.90;;;;;;4948571;28;20104;-57
2023/12/10 02:50:35;;;;;;;31.52;5.05;;;7.70;99.90;;;;;;4991128;28;20068;-58
2023/12/10 02:53:00;;;;;;;30.92;4.20;;;7.70;99.90;;;;;;4990251;28;20449;-58
2023/12/10 02:55:26;;;;;;;41.28;5.15;;;7.70;99.90;;;;;;4985499;28;20042;-58
2023/12/10 02:57:52;;;;;;;28.83;5.30;;;7.70;99.90;;;;;;4990608;28;20398;-58
2023/12/10 03:00:17;;;;;;;25.02;4.78;;;7.70;99.90;;;;;;4991051;28;20038;-58
2023/12/10 03:02:43;;;;;;;23.92;4.43;;;7.70;99.90;;;;;;4988254;28;20054;-56
2023/12/10 03:05:09;;;;;;;35.25;5.25;;;7.70;99.90;;;;;;4986378;28;20050;-59
2023/12/10 03:07:35;;;;;;;30.45;5.60;;;7.60;99.90;;;;;;4981543;28;20042;-56
2023/12/10 03:10:01;;;;;;;27.38;4.53;;;7.60;99.90;;;;;;4985095;28;20415;-57
2023/12/10 03:12:27;;;;;;;27.48;4.50;;;7.60;99.90;;;;;;4983070;28;20042;-57
2023/12/10 03:14:52;;;;;;;31.15;4.80;;;7.60;99.90;;;;;;4971406;28;20506;-56
2023/12/10 03:17:18;;;;;;;26.27;3.90;;;7.60;99.90;;;;;;4985796;28;20500;-58
2023/12/10 03:19:44;;;;;;;25.65;4.30;;;7.60;99.90;;;;;;4986863;28;20457;-57
2023/12/10 03:22:10;;;;;;;26.00;4.50;;;7.60;99.90;;;;;;4985665;28;20057;-57
2023/12/10 03:24:36;;;;;;;23.58;3.88;;;7.60;99.90;;;;;;4982232;28;20494;-58
2023/12/10 03:27:01;;;;;;;29.60;4.53;;;7.60;99.90;;;;;;4988514;28;20053;-57
2023/12/10 03:29:27;;;;;;;24.85;4.60;;;7.60;99.90;;;;;;4986928;28;20042;-57
2023/12/10 03:31:53;;;;;;;22.45;3.88;;;7.50;99.90;;;;;;4970612;28;21723;-57
2023/12/10 03:34:19;;;;;;;19.45;3.70;;;7.60;99.90;;;;;;4967331;28;20057;-57
2023/12/10 03:36:45;;;;;;;20.90;3.55;;;7.60;99.90;;;;;;4983070;28;20050;-57
2023/12/10 03:39:12;;;;;;;19.83;3.15;;;7.60;99.90;;;;;;4959888;28;20119;-57
2023/12/10 03:41:37;;;;;;;19.40;3.47;;;7.50;99.90;;;;;;4945978;28;20135;-58
2023/12/10 03:44:03;;;;;;;23.55;3.50;;;7.50;99.90;;;;;;4972971;28;20129;-57
2023/12/10 03:46:29;;;;;;;18.92;4.65;;;7.50;99.90;;;;;;4961032;28;20116;-57
2023/12/10 03:48:55;;;;;;;18.92;3.25;;;7.50;99.90;;;;;;4958209;28;20046;-57
2023/12/10 03:51:20;;;;;;;13.45;2.83;;;7.50;99.90;;;;;;4963509;28;20069;-56
2023/12/10 03:53:46;;;;;;;18.08;3.22;;;7.50;99.90;;;;;;4962761;28;20047;-58
2023/12/10 03:56:12;;;;;;;14.05;2.92;;;7.50;99.90;;;;;;4960805;28;20038;-56
2023/12/10 03:58:37;;;;;;;19.23;3.22;;;7.50;99.90;;;;;;4962212;28;20042;-57
2023/12/10 04:01:03;;;;;;;12.07;2.70;;;7.50;99.90;;;;;;4961151;28;20048;-58
2023/12/10 04:03:29;;;;;;;13.05;2.15;;;7.50;99.90;;;;;;4964464;28;20128;-57
2023/12/10 04:05:55;;;;;;;7.88;2.00;;;7.50;99.90;;;;;;4960094;28;20051;-58
2023/12/10 04:08:20;;;;;;;8.63;2.10;;;7.50;99.90;;;;;;4961055;28;20053;-58
2023/12/10 04:10:46;;;;;;;11.10;1.95;;;7.50;99.90;;;;;;4960114;28;20142;-57
2023/12/10 04:13:12;;;;;;;12.60;1.92;;;7.50;99.90;;;;;;4960135;28;20049;-58
2023/12/10 04:15:37;;;;;;;10.32;1.75;;;7.60;99.90;;;;;;4959808;28;20061;-57
2023/12/10 04:18:03;;;;;;;7.43;1.92;;;7.50;99.90;;;;;;4961580;28;20131;-56
2023/12/10 04:20:29;;;;;;;9.05;1.83;;;7.60;99.90;;;;;;4961473;28;20039;-57
2023/12/10 04:22:55;;;;;;;9.43;2.55;;;7.60;99.90;;;;;;4940426;28;20042;-58
2023/12/10 04:25:20;;;;;;;10.30;2.17;;;7.60;99.90;;;;;;4952017;28;21126;-58
2023/12/10 04:27:46;;;;;;;9.52;2.20;;;7.60;99.90;;;;;;4969019;28;20046;-54
2023/12/10 04:30:12;;;;;;;15.90;2.13;;;7.70;99.90;;;;;;4970473;28;20415;-58
2023/12/10 04:32:38;;;;;;;12.95;2.42;;;7.70;99.90;;;;;;4967461;28;20090;-58
2023/12/10 04:35:04;;;;;;;18.73;2.60;;;7.70;99.90;;;;;;4969263;28;20510;-59
2023/12/10 04:37:29;;;;;;;11.63;2.28;;;7.80;99.90;;;;;;4969106;28;20051;-57
2023/12/10 04:39:55;;;;;;;12.15;2.40;;;7.80;99.90;;;;;;4979838;28;20077;-58
2023/12/10 04:42:21;;;;;;;13.05;2.78;;;7.80;99.90;;;;;;4986506;28;20175;-57
2023/12/10 04:44:46;;;;;;;15.68;2.45;;;7.80;99.90;;;;;;4959106;28;20100;-58
2023/12/10 04:47:12;;;;;;;16.48;3.00;;;7.90;99.90;;;;;;4976293;28;20042;-58
2023/12/10 04:49:38;;;;;;;19.38;2.50;;;7.90;99.90;;;;;;4983866;28;20041;-57
2023/12/10 04:52:05;;;;;;;23.00;3.33;;;7.90;99.90;;;;;;4964188;28;20081;-57
2023/12/10 04:54:31;;;;;;;17.38;3.33;;;7.90;99.90;;;;;;4982996;28;20225;-58
2023/12/10 04:56:57;;;;;;;16.42;3.28;;;8.00;99.90;;;;;;4968944;28;20046;-58
2023/12/10 04:59:22;;;;;;;16.17;2.97;;;8.00;99.90;;;;;;4978423;28;20566;-59
2023/12/10 05:01:48;;;;;;;15.95;2.88;;;8.00;99.90;;;;;;4974438;28;20517;-58
2023/12/10 05:04:14;;;;;;;18.10;3.15;;;8.00;99.90;;;;;;4965745;28;20073;-58
2023/12/10 05:06:40;;;;;;;16.58;2.60;;;8.10;99.90;;;;;;4964087;28;20139;-57
2023/12/10 05:09:05;;;;;;;18.65;3.28;;;8.10;99.90;;;;;;4962423;28;20218;-57
2023/12/10 05:11:31;;;;;;;17.63;3.00;;;8.10;99.90;;;;;;4980163;28;20044;-58
2023/12/10 05:13:57;;;;;;;12.13;2.65;;;8.10;99.90;;;;;;4963237;28;20112;-58
2023/12/10 05:16:23;;;;;;;12.60;2.08;;;8.10;99.90;;;;;;4978962;28;20132;-57
2023/12/10 05:18:48;;;;;;;8.75;2.10;;;8.10;99.90;;;;;;4979909;28;20490;-57
2023/12/10 05:21:14;;;;;;;13.30;2.42;;;8.10;99.90;;;;;;4982252;28;20535;-57
2023/12/10 05:23:40;;;;;;;9.90;2.38;;;8.10;99.90;;;;;;4982649;28;20053;-58
2023/12/10 05:26:06;;;;;;;10.80;2.10;;;8.10;99.90;;;;;;4982393;28;20042;-56
2023/12/10 05:28:31;;;;;;;11.45;2.33;;;8.10;99.90;;;;;;4981443;28;20049;-57
2023/12/10 05:30:57;;;;;;;17.45;2.38;;;8.10;99.90;;;;;;4981221;28;20434;-57
2023/12/10 05:33:23;;;;;;;10.15;1.92;;;8.10;99.90;;;;;;4984703;28;20478;-57
2023/12/10 05:35:48;;;;;;;9.50;2.38;;;8.20;99.90;;;;;;4983720;28;20035;-58
2023/12/10 05:38:14;;;;;;;12.52;2.22;;;8.10;99.90;;;;;;4967816;28;20049;-57
2023/12/10 05:40:40;;;;;;;14.18;2.70;;;8.10;99.90;;;;;;4966772;28;20058;-57
2023/12/10 05:43:06;;;;;;;10.98;2.20;;;8.10;99.90;;;;;;4981782;28;20137;-59
2023/12/10 05:45:32;;;;;;;12.27;2.30;;;8.20;99.90;;;;;;4964936;28;20136;-59
2023/12/10 05:47:57;;;;;;;12.40;2.17;;;8.10;99.90;;;;;;4981283;28;20085;-57
2023/12/10 05:50:23;;;;;;;9.73;1.70;;;8.20;99.90;;;;;;4982620;28;20494;-57
2023/12/10 05:52:49;;;;;;;10.95;1.83;;;8.10;99.90;;;;;;4983835;28;20078;-57
2023/12/10 05:55:14;;;;;;;8.32;1.70;;;8.10;99.90;;;;;;4955365;28;20046;-57
2023/12/10 05:57:40;;;;;;;9.75;1.70;;;8.10;99.90;;;;;;4982227;28;20559;-58
2023/12/10 06:00:07;;;;;;;6.22;1.70;;;8.10;99.90;;;;;;4983291;28;20038;-57
2023/12/10 06:02:33;;;;;;;8.60;1.70;;;8.10;99.90;;;;;;4944750;28;20061;-58
2023/12/10 06:04:59;;;;;;;8.02;1.80;;;8.10;99.90;;;;;;4981980;28;20078;-57
2023/12/10 06:07:24;;;;;;;15.48;2.22;;;8.10;99.90;;;;;;4983623;28;20044;-57
2023/12/10 06:09:50;;;;;;;17.88;2.72;;;8.10;99.90;;;;;;4990615;28;20053;-57
2023/12/10 06:12:16;;;;;;;17.92;2.53;;;8.20;99.90;;;;;;4989834;28;20073;-57
2023/12/10 06:14:42;;;;;;;13.32;2.38;;;8.20;99.90;;;;;;4987008;28;20046;-57
2023/12/10 06:17:09;;;;;;;19.25;2.90;;;8.10;99.90;;;;;;4984522;28;20061;-59
2023/12/10 06:19:35;;;;;;;19.33;3.85;;;8.10;99.90;;;;;;4967616;28;20042;-58
2023/12/10 06:22:02;;;;;;;14.45;2.70;;;8.20;99.90;;;;;;4986987;28;20120;-57
2023/12/10 06:24:28;;;;;;;13.77;2.85;;;8.20;99.90;;;;;;4985711;28;20503;-58
2023/12/10 06:26:54;;;;;;;20.33;3.40;;;8.20;99.90;;;;;;4975932;28;20052;-57
2023/12/10 06:29:19;;;;;;;20.00;3.00;;;8.20;99.90;;;;;;4986750;28;20046;-58
2023/12/10 06:31:45;;;;;;;24.25;3.25;;;8.20;99.90;;;;;;4983118;28;20539;-58
2023/12/10 06:34:11;;;;;;;28.23;3.53;;;8.20;99.90;;;;;;4969182;28;20049;-57
2023/12/10 06:36:37;;;;;;;24.35;3.70;;;8.20;99.90;;;;;;4965220;28;20650;-59
2023/12/10 06:39:02;;;;;;;19.65;3.70;;;8.30;99.90;;;;;;4981557;28;20531;-58
2023/12/10 06:41:28;;;;;;;29.60;4.40;;;8.30;99.90;;;;;;4980282;28;20314;-58
2023/12/10 06:43:54;;;;;;;21.23;3.92;;;8.30;99.90;;;;;;4964946;28;20049;-58
2023/12/10 06:46:20;;;;;;;26.58;3.50;;;8.30;99.90;;;;;;4980883;28;20090;-56
2023/12/10 06:48:45;;;;;;;23.23;3.70;;;8.30;99.90;;;;;;4978039;28;20046;-56
2023/12/10 06:51:11;;;;;;;26.27;3.80;;;8.40;99.90;;;;;;4969554;28;20066;-57
2023/12/10 06:53:37;;;;;;;33.72;4.00;;;8.40;99.90;;;;;;4979092;28;20041;-56
2023/12/10 06:56:03;;;;;;;20.88;4.40;;;8.40;99.90;;;;;;4978709;28;20041;-58
2023/12/10 06:58:29;;;;;;;24.83;4.22;;;8.40;99.90;;;;;;4982429;28;20125;-57
2023/12/10 07:00:56;;;;;;;26.02;3.70;;;8.40;99.90;;;;;;4982577;28;20042;-57
2023/12/10 07:03:22;;;;;;;28.33;3.75;;;8.40;99.90;;;;;;4978773;28;20054;-57
2023/12/10 07:05:48;;;;;;;26.02;4.25;;;8.40;99.90;;;;;;4980048;28;20056;-57
2023/12/10 07:08:14;;;;;;;26.98;4.47;;;8.40;99.90;;;;;;4984833;28;20054;-58
2023/12/10 07:10:39;;;;;;;20.92;3.53;;;8.40;99.90;;;;;;4979768;28;20047;-57
2023/12/10 07:13:05;;;;;;;23.45;3.38;;;8.40;99.90;;;;;;4981824;28;20090;-58
2023/12/10 07:15:31;;;;;;;20.67;3.60;;;8.30;99.90;;;;;;4981207;28;20454;-57
2023/12/10 07:17:56;;;;;;;25.08;4.53;;;8.40;99.90;;;;;;4982870;28;20077;-58
2023/12/10 07:20:22;;;;;;;19.00;3.35;;;8.30;99.90;;;;;;4964063;28;20863;-57
2023/12/10 07:22:48;;;;;;;25.48;3.20;;;8.40;99.90;;;;;;4980488;28;20054;-57
2023/12/10 07:25:14;;;;;;;17.30;3.10;;;8.40;99.90;;;;;;4978086;28;20048;-58
2023/12/10 07:27:41;;;;;;;23.50;3.47;;;8.40;99.90;;;;;;4982707;28;20067;-58
2023/12/10 07:30:07;;;;;;;18.00;3.53;;;8.40;99.90;;;;;;4982523;28;20038;-57
2023/12/10 07:32:33;;;;;;;24.38;3.58;;;8.40;99.90;;;;;;4967713;28;20147;-58
2023/12/10 07:34:59;;;;;;;19.23;2.97;;;8.40;99.90;;;;;;4978484;28;20042;-58
2023/12/10 07:37:25;;;;;;;21.05;3.40;;;8.40;99.90;;;;;;4984457;28;20133;-58
2023/12/10 07:39:50;;;;;;;15.82;2.95;;;8.40;99.90;;;;;;4982073;28;20177;-57
2023/12/10 07:42:16;;;;;;;20.05;2.97;;;8.50;99.90;;;;;;4989096;28;20114;-57
2023/12/10 07:44:42;;;;;;;16.65;2.78;;;8.40;99.90;;;;;;4967321;28;20046;-58
2023/12/10 07:47:08;;;;;;;19.10;3.17;;;8.50;99.90;;;;;;4984694;28;20042;-58
2023/12/10 07:49:33;;;;;;;16.50;2.70;;;8.50;99.90;;;;;;4966171;28;20133;-58
2023/12/10 07:51:59;;;;;;;21.38;3.15;;;8.50;99.90;;;;;;4982213;28;20095;-57
2023/12/10 07:54:25;;;;;;;18.88;3.17;;;8.50;99.90;;;;;;4989403;28;20109;-58
2023/12/10 07:56:51;;;;;;;13.18;2.40;;;8.50;99.90;;;;;;4986514;28;20038;-59
2023/12/10 07:59:17;;;;;;;19.27;2.72;;;8.50;99.90;;;;;;4983366;28;20101;-57
2023/12/10 08:01:43;;;;;;;14.63;2.55;;;8.50;99.90;;;;;;4965513;28;20053;-58
2023/12/10 08:04:08;;;;;;;13.68;2.75;;;8.50;99.90;;;;;;4963598;28;20445;-58
2023/12/10 08:06:34;;;;;;;18.55;3.17;;;8.40;99.90;;;;;;4983975;28;20038;-57
2023/12/10 08:09:04;;;;;;;21.60;3.35;;;8.40;99.90;;;;;;4985662;28;20664;-59
2023/12/10 08:11:30;;;;;;;20.38;3.13;;;8.40;99.90;;;;;;4972059;28;20046;-56
2023/12/10 08:13:56;;;;;;;24.02;3.70;;;8.50;99.90;;;;;;4984964;28;20045;-57
2023/12/10 08:16:23;;;;;;;15.70;2.90;;;8.50;99.90;;;;;;4985464;28;20132;-58
2023/12/10 08:18:50;;;;;;;15.48;2.45;;;8.50;99.90;;;;;;4978448;28;20050;-58
2023/12/10 08:21:16;;;;;;;20.63;2.70;;;8.50;99.90;;;;;;4983296;28;20056;-58
2023/12/10 08:23:42;;;;;;;21.00;2.47;;;8.50;99.90;;;;;;4982493;28;20161;-59
2023/12/10 08:26:07;;;;;;;15.48;2.70;;;8.50;99.90;;;;;;4979462;28;20045;-58
2023/12/10 08:28:34;;;;;;;14.25;2.17;;;8.50;99.90;;;;;;4981176;28;20046;-56
2023/12/10 08:30:59;;;;;;;16.48;3.13;;;8.50;99.90;;;;;;4982877;28;20593;-58
2023/12/10 08:33:25;;;;;;;15.43;2.90;;;8.50;99.90;;;;;;4978681;28;20046;-57
2023/12/10 08:35:51;;;;;;;21.35;2.95;;;8.50;99.90;;;;;;4968275;28;20454;-57
2023/12/10 08:38:16;;;;;;;23.23;3.65;;;8.50;99.90;;;;;;4978876;28;20633;-59
2023/12/10 08:40:42;;;;;;;17.27;2.97;;;8.50;99.90;;;;;;4984699;28;20131;-58
2023/12/10 08:43:08;;;;;;;19.05;3.13;;;8.50;99.90;;;;;;4968605;28;20104;-58
2023/12/10 08:45:34;;;;;;;16.60;2.60;;;8.40;99.90;;;;;;4976900;28;20046;-58
2023/12/10 08:48:00;;;;;;;16.60;3.35;;;8.40;99.90;;;;;;4980397;28;20699;-58
2023/12/10 08:50:25;;;;;;;21.05;3.05;;;8.40;99.90;;;;;;4969818;28;20056;-58
2023/12/10 08:52:51;;;;;;;15.50;2.80;;;8.40;99.90;;;;;;4968215;28;20049;-57
2023/12/10 08:55:17;;;;;;;15.43;2.75;;;8.40;99.90;;;;;;4970155;28;20466;-58
2023/12/10 08:57:44;;;;;;;21.42;2.72;;;8.40;99.90;;;;;;4990996;28;20042;-57
2023/12/10 09:00:10;;;;;;;22.45;3.20;;;8.40;99.90;;;;;;4990859;28;20046;-58
2023/12/10 09:02:36;;;;;;;20.13;3.42;;;8.40;99.90;;;;;;4981957;28;20144;-59
2023/12/10 09:05:02;;;;;;;27.92;3.80;;;8.40;99.90;;;;;;4985847;28;20121;-57
2023/12/10 09:07:30;;;;;;;30.88;4.97;;;8.40;99.90;;;;;;4986864;28;20136;-58
2023/12/10 09:09:59;;;;;;;36.58;5.00;;;8.40;99.90;;;;;;4987131;28;20085;-58
2023/12/10 09:12:28;;;;;;;33.00;5.47;;;8.40;99.90;;;;;;4987152;28;20137;-58
2023/12/10 09:14:54;;;;;;;28.77;3.97;;;8.40;99.90;;;;;;4988825;28;20075;-57
2023/12/10 09:17:21;;;;;;;27.42;4.30;;;8.40;99.90;;;;;;4984827;28;20041;-58
2023/12/10 09:19:48;;;;;;;29.77;3.92;;;8.40;99.90;;;;;;4987121;28;20038;-57
2023/12/10 09:22:13;;;;;;;25.77;4.45;;;8.40;99.90;;;;;;4963602;28;20042;-57
2023/12/10 09:24:40;;;;;;;23.95;3.65;;;8.40;99.90;;;;;;4980329;28;20092;-57
2023/12/10 09:27:06;;;;;;;28.35;4.72;;;8.40;99.90;;;;;;4978521;28;20116;-57
2023/12/10 09:29:38;;;;;;;24.35;4.35;;;8.40;99.90;;;;;;4945604;28;20103;-58
2023/12/10 09:32:07;;;;;;;22.95;4.05;;;8.30;99.90;;;;;;4966203;28;20101;-58
2023/12/10 09:34:33;;;;;;;21.20;3.58;;;8.30;99.90;;;;;;4978470;28;20468;-58
2023/12/10 09:37:00;;;;;;;24.02;3.35;;;8.30;99.90;;;;;;4979387;28;20042;-59
2023/12/10 09:39:26;;;;;;;26.17;3.55;;;8.30;99.90;;;;;;4983420;28;20160;-57
2023/12/10 09:41:53;;;;;;;25.67;3.88;;;8.30;99.90;;;;;;4970008;28;20069;-58
2023/12/10 09:44:19;;;;;;;21.70;3.20;;;8.30;99.90;;;;;;4981472;28;20410;-58
2023/12/10 09:46:44;;;;;;;20.13;3.65;;;8.30;99.90;;;;;;4982020;28;20050;-58
2023/12/10 09:49:12;;;;;;;15.07;2.78;;;8.30;99.90;;;;;;4979722;28;20497;-58
2023/12/10 09:51:37;;;;;;;17.90;3.38;;;8.30;99.90;;;;;;4981005;28;20058;-58
2023/12/10 09:54:03;;;;;;;24.63;3.10;;;8.40;99.90;;;;;;4979525;28;20455;-57
2023/12/10 09:56:29;;;;;;;23.17;3.35;;;8.40;99.90;;;;;;4979978;28;20054;-57
2023/12/10 09:58:54;;;;;;;19.02;2.80;;;8.40;99.90;;;;;;4973560;28;20045;-58
2023/12/10 10:01:20;;;;;;;28.33;3.78;;;8.40;99.90;;;;;;4981111;28;20053;-57
2023/12/10 10:03:46;;;;;;;24.10;3.33;;;8.30;99.90;;;;;;4985941;28;20352;-58
2023/12/10 10:06:12;;;;;;;21.83;3.65;;;8.30;99.90;;;;;;4969315;28;20966;-59
2023/12/10 10:08:37;;;;;;;21.30;3.33;;;8.30;99.90;;;;;;4989053;28;20042;-57
2023/12/10 10:11:03;;;;;;;22.48;3.47;;;8.30;99.90;;;;;;4967609;28;20082;-58
2023/12/10 10:13:30;;;;;;;31.38;4.00;;;8.30;99.90;;;;;;4985959;28;20457;-56
2023/12/10 10:15:55;;;;;;;22.15;4.03;;;8.30;99.90;;;;;;4950753;28;20143;-56
2023/12/10 10:18:22;;;;;;;25.10;3.75;;;8.40;99.90;;;;;;4922531;28;20059;-59
2023/12/10 10:20:48;;;;;;;18.23;3.58;;;8.30;99.90;;;;;;4949964;28;20072;-58
2023/12/10 10:23:14;;;;;;;24.67;3.95;;;8.40;99.90;;;;;;4962492;28;20545;-58
2023/12/10 10:25:40;;;;;;;19.15;3.28;;;8.40;99.90;;;;;;4941037;28;20053;-58
2023/12/10 10:28:09;;;;;;;21.15;3.45;;;8.40;99.90;;;;;;4963340;28;20407;-58
2023/12/10 10:30:35;;;;;;;21.80;3.92;;;8.40;99.90;;;;;;4966684;28;20470;-58
2023/12/10 10:33:01;;;;;;;24.77;3.67;;;8.30;99.90;;;;;;4965091;28;20465;-57
2023/12/10 10:35:27;;;;;;;19.38;3.88;;;8.40;99.90;;;;;;4964911;28;20046;-57
2023/12/10 10:37:54;;;;;;;22.30;3.90;;;8.30;99.90;;;;;;4951996;28;20551;-57
2023/12/10 10:40:20;;;;;;;25.63;4.35;;;8.40;99.90;;;;;;4929950;28;20078;-57
2023/12/10 10:42:46;;;;;;;27.27;5.05;;;8.40;99.90;;;;;;4943356;28;20129;-58
2023/12/10 10:45:11;;;;;;;30.25;4.53;;;8.30;99.90;;;;;;4938149;28;20050;-58
2023/12/10 10:47:37;;;;;;;36.50;5.40;;;8.30;99.90;;;;;;4940293;28;20053;-57
2023/12/10 10:50:05;;;;;;;44.92;5.75;;;8.40;99.90;;;;;;4937953;28;20046;-57
2023/12/10 10:52:33;;;;;;;32.47;5.78;;;8.30;99.90;;;;;;4937600;28;20050;-55
2023/12/10 10:55:00;;;;;;;32.40;5.72;;;8.30;99.90;;;;;;4944130;28;20046;-57
2023/12/10 10:57:37;;;;;;;34.85;5.82;;;8.40;99.90;;;;;;4939619;28;20380;-58
2023/12/10 11:00:18;;;;;;;39.53;5.55;;;8.40;99.90;;;;;;4942297;28;20053;-56
2023/12/10 11:02:46;;;;;;;30.77;4.50;;;8.50;99.90;;;;;;4942122;28;20584;-57
2023/12/10 11:05:29;;;;;;;30.08;5.18;;;8.50;99.90;;;;;;4937692;28;20784;-58
2023/12/10 11:07:55;;;;;;;38.22;5.60;;;8.40;99.90;;;;;;4940347;28;20050;-57
2023/12/10 11:10:21;;;;;;;38.97;5.45;;;8.40;99.90;;;;;;4940493;28;20610;-58
2023/12/10 11:12:49;;;;;;;31.00;5.47;;;8.40;99.90;;;;;;4953481;28;20727;-57
2023/12/10 11:15:18;;;;;;;33.60;5.72;;;8.40;99.90;;;;;;4948181;28;20049;-58
2023/12/10 11:17:54;;;;;;;40.95;5.25;;;8.40;99.90;;;;;;4943714;28;20303;-57
2023/12/10 11:20:33;;;;;;;35.30;5.35;;;8.40;99.90;;;;;;4958061;28;20094;-57
2023/12/10 11:23:04;;;;;;;37.00;5.78;;;8.40;99.90;;;;;;4951353;28;20058;-58
2023/12/10 11:25:31;;;;;;;38.50;5.95;;;8.50;99.90;;;;;;4915530;28;20049;-58
2023/12/10 11:27:58;;;;;;;30.75;5.88;;;8.40;99.90;;;;;;4955339;28;20609;-58
2023/12/10 11:30:25;;;;;;;30.33;4.95;;;8.40;99.90;;;;;;4962411;28;20046;-57
2023/12/10 11:32:51;;;;;;;40.70;5.78;;;8.50;99.90;;;;;;4957954;28;20149;-59
2023/12/10 11:35:17;;;;;;;41.15;5.50;;;8.50;99.90;;;;;;4954256;28;20034;-56
2023/12/10 11:37:43;;;;;;;42.28;6.18;;;8.50;99.90;;;;;;4950363;28;20081;-57
2023/12/10 11:40:10;;;;;;;35.80;6.05;;;8.50;99.90;;;;;;4971890;28;20058;-58
2023/12/10 11:42:36;;;;;;;41.70;6.57;;;8.50;99.90;;;;;;4973159;28;21187;-56
2023/12/10 11:45:04;;;;;;;38.38;5.55;;;8.50;99.90;;;;;;4980176;28;20239;-57
2023/12/10 11:47:30;;;;;;;37.22;5.50;;;8.50;99.90;;;;;;4957968;28;20096;-55
2023/12/10 11:49:56;;;;;;;46.28;6.05;;;8.50;99.90;;;;;;4954439;28;20041;-57
2023/12/10 11:52:22;;;;;;;36.53;6.30;;;8.50;99.90;;;;;;4969466;28;20682;-58
2023/12/10 11:54:49;;;;;;;37.42;6.45;;;8.60;99.90;;;;;;4978858;28;20510;-57
2023/12/10 11:57:15;;;;;;;46.50;6.68;;;8.60;99.90;;;;;;4983021;28;20343;-57
2023/12/10 11:59:43;;;;;;;36.63;6.07;;;8.50;99.90;;;;;;4981442;28;20049;-56
2023/12/10 12:02:09;;;;;;;33.22;5.97;;;8.60;99.90;;;;;;4979860;28;20065;-58
2023/12/10 12:04:35;;;;;;;47.47;7.03;;;8.60;99.90;;;;;;4983112;28;20279;-59
2023/12/10 12:07:01;;;;;;;36.40;6.28;;;8.60;99.90;;;;;;4983616;28;20061;-58
2023/12/10 12:09:26;;;;;;;33.67;6.60;;;8.60;99.90;;;;;;4979642;28;20048;-58
2023/12/10 12:11:52;;;;;;;38.88;6.65;;;8.50;99.90;;;;;;4977936;28;20065;-58
2023/12/10 12:14:19;;;;;;;42.53;6.45;;;8.50;99.90;;;;;;4979370;28;20049;-58
2023/12/10 12:16:46;;;;;;;41.92;5.32;;;8.50;99.90;;;;;;4976123;28;20037;-57
2023/12/10 12:19:27;;;;;;;34.25;5.93;;;8.50;99.90;;;;;;4981558;28;20077;-59
2023/12/10 12:21:54;;;;;;;45.63;6.78;;;8.50;99.90;;;;;;4977422;28;21863;-58
2023/12/10 12:24:20;;;;;;;48.65;7.07;;;8.50;99.90;;;;;;4965951;28;20051;-58
2023/12/10 12:26:49;;;;;;;44.25;6.50;;;8.50;99.90;;;;;;4978079;28;20038;-58
2023/12/10 12:29:16;;;;;;;42.15;6.95;;;8.50;99.90;;;;;;4965542;28;20426;-57
2023/12/10 12:31:41;;;;;;;33.05;6.53;;;8.50;99.90;;;;;;4979510;28;20459;-57
2023/12/10 12:34:07;;;;;;;52.08;7.30;;;8.50;99.90;;;;;;4963598;28;20637;-58
2023/12/10 12:36:33;;;;;;;42.60;6.10;;;8.50;99.90;;;;;;4982547;28;20101;-57
2023/12/10 12:38:59;;;;;;;40.47;7.25;;;8.50;99.90;;;;;;4963982;28;20540;-57
2023/12/10 12:41:25;;;;;;;33.83;5.72;;;8.50;99.90;;;;;;4979331;28;20614;-57
2023/12/10 12:43:51;;;;;;;50.72;6.22;;;8.50;99.90;;;;;;4974807;28;20042;-55